O'Neill, NE

4:28 PM CDT on May 24, 2018 (GMT -0500)
The O'Neill Municipal-Baker

Weather History for KONL - October, 2012

Change the Weather History Date:

Tuesday, October 16, 2012

  Actual Average Record
Temperature  
Mean Temperature 64 °F -  
Max Temperature 76 °F 61 °F 86 °F (1956)
Min Temperature 53 °F 34 °F 16 °F (1976)
Growing Degree Days 14 (Base 50)    
Moisture  
Dew Point 39 °F    
Average Humidity 41    
Maximum Humidity 62    
Minimum Humidity 24    
Precipitation  
Precipitation 0.00 in - - ()
Sea Level Pressure  
Sea Level Pressure 29.54 in    
Wind  
Wind Speed 11 mph (WSW)    
Max Wind Speed 17 mph    
Max Gust Speed 25 mph    
Visibility 10 miles    
Events      
Averages and records for this station are not official NWS values.
T = Trace of Precipitation, MM = Missing Value Source: NWS Daily Summary

Daily Weather History Graph

Daily Weather History Graph

Search for Another Location

Airport or City:

Astronomy

Oct. 16, 2012 Rise Set
Actual Time 7:49 AM CDT 6:50 PM CDT
Civil Twilight 7:21 AM CDT 7:18 PM CDT
Nautical Twilight 6:48 AM CDT 7:51 PM CDT
Astronomical Twilight 6:15 AM CDT 8:23 PM CDT
Moon 9:16 AM CDT (10/16) 7:32 PM CDT (10/16)
Length of Visible Light 11h 57m
Length of Day
11h 00m
New Moon, 2% of the Moon is Illuminated
Oct 16
New Moon
Oct 21
First Quarter
Oct 29
Full
Nov 6
Last Quarter
Nov 13
New

Hourly Weather History & Observations

Time (CDT) Temp. Dew Point Humidity Pressure Visibility Wind Dir Wind Speed Gust Speed Precip Events Conditions
12:15 AM 62.8 °F 37.0 °F 38% 29.65 in 10.0 mi SSW 12.7 mph - N/A   Clear
12:35 AM 63.5 °F 38.1 °F 39% 29.65 in 10.0 mi SSW 12.7 mph - N/A   Clear
12:55 AM 63.0 °F 39.2 °F 42% 29.64 in 10.0 mi SSW 11.5 mph - N/A   Clear
1:15 AM 61.7 °F 39.6 °F 44% 29.62 in 10.0 mi South 10.4 mph - N/A   Clear
1:35 AM 61.0 °F 40.3 °F 46% 29.62 in 10.0 mi SSW 9.2 mph - N/A   Clear
1:55 AM 60.8 °F 41.0 °F 48% 29.62 in 10.0 mi SSW 10.4 mph 18.4 mph N/A   Clear
2:15 AM 59.4 °F 41.2 °F 51% 29.61 in 10.0 mi SSW 10.4 mph - N/A   Clear
2:35 AM 57.6 °F 41.0 °F 54% 29.61 in 10.0 mi SW 6.9 mph - N/A   Clear
2:55 AM 57.4 °F 41.2 °F 55% 29.61 in 10.0 mi WSW 8.1 mph - N/A   Clear
3:15 AM 55.2 °F 40.6 °F 58% 29.62 in 10.0 mi West 5.8 mph - N/A   Clear
3:35 AM 54.7 °F 38.5 °F 54% 29.62 in 10.0 mi West 9.2 mph - N/A   Clear
3:55 AM 56.8 °F 32.9 °F 40% 29.61 in 10.0 mi NW 12.7 mph - N/A   Clear
4:15 AM 55.2 °F 32.5 °F 42% 29.60 in 10.0 mi NW 10.4 mph - N/A   Clear
4:35 AM 54.1 °F 33.6 °F 46% 29.62 in 10.0 mi NW 12.7 mph - N/A   Clear
4:55 AM 53.8 °F 35.1 °F 49% 29.62 in 10.0 mi NW 11.5 mph - N/A   Clear
5:15 AM 54.7 °F 37.2 °F 52% 29.63 in 10.0 mi NNW 13.8 mph - N/A   Clear
5:35 AM 54.9 °F 38.5 °F 54% 29.64 in 10.0 mi NW 12.7 mph - N/A   Clear
5:55 AM 55.4 °F 39.2 °F 54% 29.64 in 10.0 mi NNW 12.7 mph - N/A   Clear
6:15 AM 56.5 °F 39.7 °F 54% 29.65 in 10.0 mi NW 12.7 mph - N/A   Clear
6:35 AM 56.3 °F 40.1 °F 55% 29.65 in 10.0 mi NW 13.8 mph - N/A   Clear
6:55 AM 55.4 °F 41.0 °F 58% 29.65 in 10.0 mi NW 12.7 mph - N/A   Clear
7:15 AM 55.4 °F 41.0 °F 58% 29.66 in 10.0 mi WNW 13.8 mph - N/A   Clear
7:35 AM 54.7 °F 41.0 °F 60% 29.66 in 10.0 mi WNW 11.5 mph - N/A   Clear
7:55 AM 54.0 °F 41.0 °F 62% 29.66 in 10.0 mi WNW 12.7 mph - N/A   Clear
8:15 AM 54.0 °F 41.0 °F 62% 29.67 in 10.0 mi NW 11.5 mph - N/A   Clear
8:35 AM 55.4 °F 41.7 °F 60% 29.67 in 10.0 mi WNW 11.5 mph - N/A   Clear
8:55 AM 57.2 °F 42.3 °F 57% 29.67 in 10.0 mi WNW 11.5 mph 19.6 mph N/A   Clear
9:15 AM 59.0 °F 43.7 °F 57% 29.67 in 10.0 mi WNW 13.8 mph 18.4 mph N/A   Clear
9:35 AM 60.1 °F 44.6 °F 57% 29.67 in 10.0 mi WNW 16.1 mph 20.7 mph N/A   Clear
9:55 AM 61.0 °F 45.1 °F 56% 29.67 in 10.0 mi WNW 15.0 mph 23.0 mph N/A   Clear
10:15 AM 62.6 °F 45.7 °F 54% 29.67 in 10.0 mi WNW 13.8 mph 19.6 mph N/A   Clear
10:35 AM 63.5 °F 45.9 °F 53% 29.67 in 10.0 mi NW 16.1 mph 19.6 mph N/A   Clear
10:55 AM 64.4 °F 45.7 °F 51% 29.66 in 10.0 mi WNW 15.0 mph - N/A   Clear
11:15 AM 65.3 °F 46.0 °F 50% 29.65 in 10.0 mi NW 13.8 mph - N/A   Clear
11:35 AM 66.2 °F 46.2 °F 49% 29.64 in 10.0 mi WNW 13.8 mph - N/A   Clear
11:55 AM 66.9 °F 46.0 °F 47% 29.63 in 10.0 mi NW 11.5 mph - N/A   Clear
12:15 PM 67.8 °F 45.5 °F 45% 29.61 in 10.0 mi WNW 8.1 mph 16.1 mph N/A   Clear
12:35 PM 69.6 °F 44.6 °F 41% 29.60 in 10.0 mi WNW 8.1 mph - N/A   Clear
12:55 PM 70.2 °F 43.2 °F 38% 29.59 in 10.0 mi NW 6.9 mph - N/A   Clear
1:15 PM 70.5 °F 41.9 °F 35% 29.58 in 10.0 mi West 8.1 mph - N/A   Clear
1:35 PM 72.3 °F 42.1 °F 34% 29.57 in 10.0 mi WNW 9.2 mph 16.1 mph N/A   Clear
1:55 PM 73.2 °F 41.2 °F 31% 29.56 in 10.0 mi West 10.4 mph - N/A   Clear
2:15 PM 73.6 °F 41.0 °F 31% 29.54 in 10.0 mi NW 8.1 mph - N/A   Clear
2:35 PM 73.8 °F 40.5 °F 30% 29.53 in 10.0 mi West 6.9 mph - N/A   Clear
2:55 PM 73.6 °F 39.9 °F 30% 29.52 in 10.0 mi West 9.2 mph - N/A   Clear
3:15 PM 75.0 °F 39.0 °F 27% 29.50 in 10.0 mi West 10.4 mph - N/A   Clear
3:35 PM 76.1 °F 37.6 °F 25% 29.50 in 10.0 mi West 13.8 mph 17.3 mph N/A   Clear
3:55 PM 75.9 °F 37.9 °F 25% 29.49 in 10.0 mi West 12.7 mph - N/A   Clear
4:15 PM 75.9 °F 37.6 °F 25% 29.48 in 10.0 mi WSW 10.4 mph - N/A   Clear
4:35 PM 75.0 °F 36.7 °F 25% 29.47 in 10.0 mi West 9.2 mph - N/A   Clear
4:55 PM 74.5 °F 36.7 °F 25% 29.46 in 10.0 mi WSW 8.1 mph - N/A   Clear
5:15 PM 74.8 °F 36.7 °F 25% 29.45 in 10.0 mi SSW 5.8 mph - N/A   Clear
5:35 PM 74.5 °F 36.9 °F 26% 29.44 in 10.0 mi South 4.6 mph - N/A   Clear
5:55 PM 75.2 °F 36.7 °F 25% 29.44 in 10.0 mi South 5.8 mph - N/A   Clear
6:15 PM 74.1 °F 35.2 °F 24% 29.43 in 10.0 mi SSW 6.9 mph - N/A   Clear
6:35 PM 70.9 °F 35.1 °F 27% 29.42 in 10.0 mi South 5.8 mph - N/A   Clear
6:55 PM 69.4 °F 35.1 °F 28% 29.41 in 10.0 mi SSE 6.9 mph - N/A   Clear
7:15 PM 68.4 °F 35.2 °F 30% 29.41 in 10.0 mi SSE 6.9 mph - N/A   Clear
7:35 PM 68.4 °F 35.4 °F 30% 29.40 in 10.0 mi SSE 9.2 mph - N/A   Clear
7:55 PM 68.9 °F 35.6 °F 29% 29.39 in 10.0 mi SSE 8.1 mph - N/A   Clear
8:15 PM 68.7 °F 35.6 °F 30% 29.38 in 10.0 mi SSE 9.2 mph - N/A   Clear
8:35 PM 69.1 °F 35.6 °F 29% 29.37 in 10.0 mi SSE 10.4 mph - N/A   Mostly Cloudy
8:55 PM 68.4 °F 35.6 °F 30% 29.37 in 10.0 mi South 9.2 mph - N/A   Mostly Cloudy
9:15 PM 68.5 °F 35.8 °F 30% 29.35 in 10.0 mi SSE 10.4 mph 16.1 mph N/A   Mostly Cloudy
9:35 PM 68.9 °F 35.8 °F 30% 29.34 in 10.0 mi South 11.5 mph - N/A   Mostly Cloudy
9:55 PM 68.2 °F 36.0 °F 31% 29.33 in 10.0 mi South 11.5 mph 16.1 mph N/A   Scattered Clouds
10:15 PM 67.1 °F 36.0 °F 32% 29.32 in 10.0 mi South 9.2 mph - N/A   Scattered Clouds
10:35 PM 68.5 °F 36.1 °F 30% 29.32 in 10.0 mi South 12.7 mph - N/A   Mostly Cloudy
10:55 PM 68.7 °F 36.5 °F 31% 29.32 in 10.0 mi South 12.7 mph - N/A   Overcast
11:15 PM 68.4 °F 37.0 °F 32% 29.31 in 10.0 mi South 16.1 mph - N/A   Mostly Cloudy
11:35 PM 69.1 °F 36.5 °F 30% 29.32 in 10.0 mi SSW 17.3 mph 25.3 mph N/A   Mostly Cloudy
11:55 PM 70.3 °F 36.1 °F 29% 29.31 in 10.0 mi SW 15.0 mph 21.9 mph N/A   Overcast